sensor_id;sensor_type;location;lat;lon;timestamp;temperature;humidity
12152;DHT22;6139;51.274;7.128;2022-12-29T00:00:53;8.80;99.90
12152;DHT22;6139;51.274;7.128;2022-12-29T00:01:55;8.80;99.90
12152;DHT22;6139;51.274;7.128;2022-12-29T00:02:56;8.80;99.90
12152;DHT22;6139;51.274;7.128;2022-12-29T00:03:59;8.80;99.90
12152;DHT22;6139;51.274;7.128;2022-12-29T00:05:00;8.80;99.90
12152;DHT22;6139;51.274;7.128;2022-12-29T00:06:02;8.80;99.90
12152;DHT22;6139;51.274;7.128;2022-12-29T00:07:03;8.80;99.90
12152;DHT22;6139;51.274;7.128;2022-12-29T00:08:05;8.90;99.90
12152;DHT22;6139;51.274;7.128;2022-12-29T00:09:06;8.90;99.90
12152;DHT22;6139;51.274;7.128;2022-12-29T00:10:08;8.90;99.90
12152;DHT22;6139;51.274;7.128;2022-12-29T00:11:15;8.90;99.90
12152;DHT22;6139;51.274;7.128;2022-12-29T00:12:17;8.90;99.90
12152;DHT22;6139;51.274;7.128;2022-12-29T00:13:18;8.90;99.90
12152;DHT22;6139;51.274;7.128;2022-12-29T00:14:38;8.90;99.90
12152;DHT22;6139;51.274;7.128;2022-12-29T00:15:58;8.90;99.90
12152;DHT22;6139;51.274;7.128;2022-12-29T00:17:00;8.90;99.90
12152;DHT22;6139;51.274;7.128;2022-12-29T00:18:01;8.90;99.90
12152;DHT22;6139;51.274;7.128;2022-12-29T00:19:04;8.90;99.90
12152;DHT22;6139;51.274;7.128;2022-12-29T00:20:05;9.00;99.90
12152;DHT22;6139;51.274;7.128;2022-12-29T00:21:26;9.00;99.90
12152;DHT22;6139;51.274;7.128;2022-12-29T00:22:45;8.90;99.90
12152;DHT22;6139;51.274;7.128;2022-12-29T00:24:06;8.90;99.90
12152;DHT22;6139;51.274;7.128;2022-12-29T00:25:25;9.00;99.90
12152;DHT22;6139;51.274;7.128;2022-12-29T00:26:47;9.00;99.90
12152;DHT22;6139;51.274;7.128;2022-12-29T00:28:08;8.90;99.90
12152;DHT22;6139;51.274;7.128;2022-12-29T00:29:28;9.00;99.90
12152;DHT22;6139;51.274;7.128;2022-12-29T00:30:47;9.00;99.90
12152;DHT22;6139;51.274;7.128;2022-12-29T00:32:07;9.00;99.90
12152;DHT22;6139;51.274;7.128;2022-12-29T00:33:29;9.00;99.90
12152;DHT22;6139;51.274;7.128;2022-12-29T00:34:49;9.00;99.90
12152;DHT22;6139;51.274;7.128;2022-12-29T00:36:15;9.00;99.90
12152;DHT22;6139;51.274;7.128;2022-12-29T00:37:17;9.00;99.90
12152;DHT22;6139;51.274;7.128;2022-12-29T00:38:41;9.00;99.90
12152;DHT22;6139;51.274;7.128;2022-12-29T00:40:02;9.00;99.90
12152;DHT22;6139;51.274;7.128;2022-12-29T00:41:24;9.00;99.90
12152;DHT22;6139;51.274;7.128;2022-12-29T00:42:46;9.00;99.90
12152;DHT22;6139;51.274;7.128;2022-12-29T00:44:06;9.00;99.90
12152;DHT22;6139;51.274;7.128;2022-12-29T00:45:10;9.00;99.90
12152;DHT22;6139;51.274;7.128;2022-12-29T00:46:11;9.00;99.90
12152;DHT22;6139;51.274;7.128;2022-12-29T00:47:13;9.00;99.90
12152;DHT22;6139;51.274;7.128;2022-12-29T00:48:15;9.10;99.90
12152;DHT22;6139;51.274;7.128;2022-12-29T00:49:37;9.10;99.90
12152;DHT22;6139;51.274;7.128;2022-12-29T00:50:38;9.10;99.90
12152;DHT22;6139;51.274;7.128;2022-12-29T00:51:39;9.10;99.90
12152;DHT22;6139;51.274;7.128;2022-12-29T00:52:40;9.10;99.90
12152;DHT22;6139;51.274;7.128;2022-12-29T00:53:42;9.10;99.90
12152;DHT22;6139;51.274;7.128;2022-12-29T00:54:43;9.10;99.90
12152;DHT22;6139;51.274;7.128;2022-12-29T00:55:45;9.10;99.90
12152;DHT22;6139;51.274;7.128;2022-12-29T00:56:47;9.10;99.90
12152;DHT22;6139;51.274;7.128;2022-12-29T00:57:52;9.10;99.90
12152;DHT22;6139;51.274;7.128;2022-12-29T00:58:53;9.10;99.90
12152;DHT22;6139;51.274;7.128;2022-12-29T00:59:55;9.10;99.90
12152;DHT22;6139;51.274;7.128;2022-12-29T01:01:01;9.10;99.90
12152;DHT22;6139;51.274;7.128;2022-12-29T01:02:04;9.20;99.90
12152;DHT22;6139;51.274;7.128;2022-12-29T01:03:05;9.10;99.90
12152;DHT22;6139;51.274;7.128;2022-12-29T01:04:08;9.20;99.90
12152;DHT22;6139;51.274;7.128;2022-12-29T01:05:10;9.20;99.90
12152;DHT22;6139;51.274;7.128;2022-12-29T01:06:13;9.10;99.90
12152;DHT22;6139;51.274;7.128;2022-12-29T01:07:15;9.20;99.90
12152;DHT22;6139;51.274;7.128;2022-12-29T01:08:19;9.20;99.90
12152;DHT22;6139;51.274;7.128;2022-12-29T01:09:20;9.20;99.90
12152;DHT22;6139;51.274;7.128;2022-12-29T01:10:40;9.20;99.90
12152;DHT22;6139;51.274;7.128;2022-12-29T01:11:41;9.20;99.90
12152;DHT22;6139;51.274;7.128;2022-12-29T01:12:43;9.20;99.90
12152;DHT22;6139;51.274;7.128;2022-12-29T01:13:48;9.20;99.90
12152;DHT22;6139;51.274;7.128;2022-12-29T01:14:49;9.20;99.90
12152;DHT22;6139;51.274;7.128;2022-12-29T01:15:51;9.20;99.90
12152;DHT22;6139;51.274;7.128;2022-12-29T01:16:53;9.20;99.90
12152;DHT22;6139;51.274;7.128;2022-12-29T01:17:54;9.20;99.90
12152;DHT22;6139;51.274;7.128;2022-12-29T01:18:58;9.20;99.90
12152;DHT22;6139;51.274;7.128;2022-12-29T01:19:59;9.20;99.90
12152;DHT22;6139;51.274;7.128;2022-12-29T01:21:03;9.30;99.90
12152;DHT22;6139;51.274;7.128;2022-12-29T01:22:05;9.30;99.90
12152;DHT22;6139;51.274;7.128;2022-12-29T01:23:07;9.20;99.90
12152;DHT22;6139;51.274;7.128;2022-12-29T01:24:08;9.30;99.90
12152;DHT22;6139;51.274;7.128;2022-12-29T01:25:10;9.20;99.90
12152;DHT22;6139;51.274;7.128;2022-12-29T01:26:14;9.30;99.90
12152;DHT22;6139;51.274;7.128;2022-12-29T01:27:17;9.30;99.90
12152;DHT22;6139;51.274;7.128;2022-12-29T01:28:18;9.30;99.90
12152;DHT22;6139;51.274;7.128;2022-12-29T01:29:21;9.30;99.90
12152;DHT22;6139;51.274;7.128;2022-12-29T01:30:23;9.30;99.90
12152;DHT22;6139;51.274;7.128;2022-12-29T01:31:27;9.30;99.90
12152;DHT22;6139;51.274;7.128;2022-12-29T01:32:28;9.30;99.90
12152;DHT22;6139;51.274;7.128;2022-12-29T01:33:30;9.30;99.90
12152;DHT22;6139;51.274;7.128;2022-12-29T01:34:31;9.30;99.90
12152;DHT22;6139;51.274;7.128;2022-12-29T01:35:33;9.30;99.90
12152;DHT22;6139;51.274;7.128;2022-12-29T01:36:34;9.30;99.90
12152;DHT22;6139;51.274;7.128;2022-12-29T01:37:37;9.30;99.90
12152;DHT22;6139;51.274;7.128;2022-12-29T01:38:38;9.30;99.90
12152;DHT22;6139;51.274;7.128;2022-12-29T01:39:40;9.30;99.90
12152;DHT22;6139;51.274;7.128;2022-12-29T01:40:45;9.30;99.90
12152;DHT22;6139;51.274;7.128;2022-12-29T01:41:47;9.30;99.90
12152;DHT22;6139;51.274;7.128;2022-12-29T01:42:48;9.30;99.90
12152;DHT22;6139;51.274;7.128;2022-12-29T01:43:52;9.40;99.90
12152;DHT22;6139;51.274;7.128;2022-12-29T01:44:57;9.40;99.90
12152;DHT22;6139;51.274;7.128;2022-12-29T01:46:00;9.30;99.90
12152;DHT22;6139;51.274;7.128;2022-12-29T01:47:01;9.40;99.90
12152;DHT22;6139;51.274;7.128;2022-12-29T01:48:05;9.40;99.90
12152;DHT22;6139;51.274;7.128;2022-12-29T01:49:12;9.40;99.90
12152;DHT22;6139;51.274;7.128;2022-12-29T01:50:18;9.30;99.90
12152;DHT22;6139;51.274;7.128;2022-12-29T01:51:22;9.30;99.90
12152;DHT22;6139;51.274;7.128;2022-12-29T01:52:27;9.30;99.90
12152;DHT22;6139;51.274;7.128;2022-12-29T01:53:32;9.30;99.90
12152;DHT22;6139;51.274;7.128;2022-12-29T01:54:40;9.30;99.90
12152;DHT22;6139;51.274;7.128;2022-12-29T01:55:45;9.30;99.90
12152;DHT22;6139;51.274;7.128;2022-12-29T01:56:49;9.30;99.90
12152;DHT22;6139;51.274;7.128;2022-12-29T01:57:53;9.30;99.90
12152;DHT22;6139;51.274;7.128;2022-12-29T01:59:00;9.30;99.90
12152;DHT22;6139;51.274;7.128;2022-12-29T02:00:06;9.30;99.90
12152;DHT22;6139;51.274;7.128;2022-12-29T02:01:18;9.30;99.90
12152;DHT22;6139;51.274;7.128;2022-12-29T02:02:20;9.30;99.90
12152;DHT22;6139;51.274;7.128;2022-12-29T02:03:24;9.30;99.90
12152;DHT22;6139;51.274;7.128;2022-12-29T02:04:30;9.30;99.90
12152;DHT22;6139;51.274;7.128;2022-12-29T02:05:37;9.30;99.90
12152;DHT22;6139;51.274;7.128;2022-12-29T02:06:45;9.40;99.90
12152;DHT22;6139;51.274;7.128;2022-12-29T02:07:48;9.40;99.90
12152;DHT22;6139;51.274;7.128;2022-12-29T02:08:53;9.40;99.90
12152;DHT22;6139;51.274;7.128;2022-12-29T02:09:57;9.40;99.90
12152;DHT22;6139;51.274;7.128;2022-12-29T02:11:00;9.40;99.90
12152;DHT22;6139;51.274;7.128;2022-12-29T02:12:03;9.40;99.90
12152;DHT22;6139;51.274;7.128;2022-12-29T02:13:05;9.40;99.90
12152;DHT22;6139;51.274;7.128;2022-12-29T02:14:09;9.40;99.90
12152;DHT22;6139;51.274;7.128;2022-12-29T02:15:12;9.40;99.90
12152;DHT22;6139;51.274;7.128;2022-12-29T02:16:25;9.40;99.90
12152;DHT22;6139;51.274;7.128;2022-12-29T02:17:39;9.40;99.90
12152;DHT22;6139;51.274;7.128;2022-12-29T02:18:52;9.40;99.90
12152;DHT22;6139;51.274;7.128;2022-12-29T02:20:19;9.40;99.90
12152;DHT22;6139;51.274;7.128;2022-12-29T02:21:48;9.40;99.90
12152;DHT22;6139;51.274;7.128;2022-12-29T02:23:06;9.40;99.90
12152;DHT22;6139;51.274;7.128;2022-12-29T02:26:03;9.40;99.90
12152;DHT22;6139;51.274;7.128;2022-12-29T02:27:40;9.50;99.90
12152;DHT22;6139;51.274;7.128;2022-12-29T02:29:07;9.50;99.90
12152;DHT22;6139;51.274;7.128;2022-12-29T02:30:37;9.50;99.90
12152;DHT22;6139;51.274;7.128;2022-12-29T02:31:44;9.50;99.90
12152;DHT22;6139;51.274;7.128;2022-12-29T02:32:52;9.50;99.90
12152;DHT22;6139;51.274;7.128;2022-12-29T02:34:03;9.50;99.90
12152;DHT22;6139;51.274;7.128;2022-12-29T02:35:13;9.50;99.90
12152;DHT22;6139;51.274;7.128;2022-12-29T02:36:23;9.50;99.90
12152;DHT22;6139;51.274;7.128;2022-12-29T02:37:30;9.50;99.90
12152;DHT22;6139;51.274;7.128;2022-12-29T02:38:50;9.50;99.90
12152;DHT22;6139;51.274;7.128;2022-12-29T02:39:58;9.50;99.90
12152;DHT22;6139;51.274;7.128;2022-12-29T02:41:07;9.50;99.90
12152;DHT22;6139;51.274;7.128;2022-12-29T02:42:13;9.50;99.90
12152;DHT22;6139;51.274;7.128;2022-12-29T02:43:24;9.50;99.90
12152;DHT22;6139;51.274;7.128;2022-12-29T02:44:33;9.50;99.90
12152;DHT22;6139;51.274;7.128;2022-12-29T02:45:47;9.50;99.90
12152;DHT22;6139;51.274;7.128;2022-12-29T02:46:53;9.50;99.90
12152;DHT22;6139;51.274;7.128;2022-12-29T02:48:01;9.50;99.90
12152;DHT22;6139;51.274;7.128;2022-12-29T02:49:09;9.50;99.90
12152;DHT22;6139;51.274;7.128;2022-12-29T02:50:17;9.50;99.90
12152;DHT22;6139;51.274;7.128;2022-12-29T02:51:23;9.50;99.90
12152;DHT22;6139;51.274;7.128;2022-12-29T02:52:31;9.50;99.90
12152;DHT22;6139;51.274;7.128;2022-12-29T02:53:36;9.50;99.90
12152;DHT22;6139;51.274;7.128;2022-12-29T02:55:08;9.50;99.90
12152;DHT22;6139;51.274;7.128;2022-12-29T02:56:12;9.50;99.90
12152;DHT22;6139;51.274;7.128;2022-12-29T02:57:26;9.50;99.90
12152;DHT22;6139;51.274;7.128;2022-12-29T02:58:29;9.50;99.90
12152;DHT22;6139;51.274;7.128;2022-12-29T02:59:30;9.50;99.90
12152;DHT22;6139;51.274;7.128;2022-12-29T03:00:32;9.50;99.90
12152;DHT22;6139;51.274;7.128;2022-12-29T03:01:45;9.50;99.90
12152;DHT22;6139;51.274;7.128;2022-12-29T03:03:16;9.60;99.90
12152;DHT22;6139;51.274;7.128;2022-12-29T03:04:29;9.60;99.90
12152;DHT22;6139;51.274;7.128;2022-12-29T03:06:08;9.60;99.90
12152;DHT22;6139;51.274;7.128;2022-12-29T03:07:20;9.60;99.90
12152;DHT22;6139;51.274;7.128;2022-12-29T03:08:30;9.60;99.90
12152;DHT22;6139;51.274;7.128;2022-12-29T03:09:38;9.60;99.90
12152;DHT22;6139;51.274;7.128;2022-12-29T03:10:48;9.60;99.90
12152;DHT22;6139;51.274;7.128;2022-12-29T03:11:58;9.60;99.90
12152;DHT22;6139;51.274;7.128;2022-12-29T03:13:15;9.60;99.90
12152;DHT22;6139;51.274;7.128;2022-12-29T03:14:51;9.60;99.90
12152;DHT22;6139;51.274;7.128;2022-12-29T03:16:21;9.60;99.90
12152;DHT22;6139;51.274;7.128;2022-12-29T03:17:28;9.70;99.90
12152;DHT22;6139;51.274;7.128;2022-12-29T03:18:40;9.70;99.90
12152;DHT22;6139;51.274;7.128;2022-12-29T03:19:48;9.70;99.90
12152;DHT22;6139;51.274;7.128;2022-12-29T03:20:54;9.70;99.90
12152;DHT22;6139;51.274;7.128;2022-12-29T03:22:00;9.80;99.90
12152;DHT22;6139;51.274;7.128;2022-12-29T03:23:28;9.80;99.90
12152;DHT22;6139;51.274;7.128;2022-12-29T03:24:35;9.80;99.90
12152;DHT22;6139;51.274;7.128;2022-12-29T03:25:42;9.80;99.90
12152;DHT22;6139;51.274;7.128;2022-12-29T03:26:47;9.80;99.90
12152;DHT22;6139;51.274;7.128;2022-12-29T03:27:53;9.80;99.90
12152;DHT22;6139;51.274;7.128;2022-12-29T03:28:57;9.80;99.90
12152;DHT22;6139;51.274;7.128;2022-12-29T03:30:02;9.70;99.90
12152;DHT22;6139;51.274;7.128;2022-12-29T03:31:07;9.70;99.90
12152;DHT22;6139;51.274;7.128;2022-12-29T03:32:11;9.70;99.90
12152;DHT22;6139;51.274;7.128;2022-12-29T03:33:17;9.70;99.90
12152;DHT22;6139;51.274;7.128;2022-12-29T03:34:23;9.70;99.90
12152;DHT22;6139;51.274;7.128;2022-12-29T03:35:26;9.70;99.90
12152;DHT22;6139;51.274;7.128;2022-12-29T03:36:33;9.70;99.90
12152;DHT22;6139;51.274;7.128;2022-12-29T03:37:39;9.70;99.90
12152;DHT22;6139;51.274;7.128;2022-12-29T03:38:46;9.60;99.90
12152;DHT22;6139;51.274;7.128;2022-12-29T03:39:48;9.60;99.90
12152;DHT22;6139;51.274;7.128;2022-12-29T03:40:53;9.60;99.90
12152;DHT22;6139;51.274;7.128;2022-12-29T03:42:01;9.60;99.90
12152;DHT22;6139;51.274;7.128;2022-12-29T03:43:04;9.60;99.90
12152;DHT22;6139;51.274;7.128;2022-12-29T03:44:08;9.60;99.90
12152;DHT22;6139;51.274;7.128;2022-12-29T03:45:10;9.60;99.90
12152;DHT22;6139;51.274;7.128;2022-12-29T03:46:12;9.60;99.90
12152;DHT22;6139;51.274;7.128;2022-12-29T03:47:16;9.60;99.90
12152;DHT22;6139;51.274;7.128;2022-12-29T03:48:20;9.60;99.90
12152;DHT22;6139;51.274;7.128;2022-12-29T03:49:24;9.60;99.90
12152;DHT22;6139;51.274;7.128;2022-12-29T03:50:25;9.60;99.90
12152;DHT22;6139;51.274;7.128;2022-12-29T03:51:27;9.60;99.90
12152;DHT22;6139;51.274;7.128;2022-12-29T03:52:29;9.60;99.90
12152;DHT22;6139;51.274;7.128;2022-12-29T03:53:31;9.60;99.90
12152;DHT22;6139;51.274;7.128;2022-12-29T03:54:32;9.60;99.90
12152;DHT22;6139;51.274;7.128;2022-12-29T03:55:34;9.60;99.90
12152;DHT22;6139;51.274;7.128;2022-12-29T03:56:35;9.60;99.90
12152;DHT22;6139;51.274;7.128;2022-12-29T03:57:37;9.60;99.90
12152;DHT22;6139;51.274;7.128;2022-12-29T03:58:41;9.60;99.90
12152;DHT22;6139;51.274;7.128;2022-12-29T03:59:48;9.60;99.90
12152;DHT22;6139;51.274;7.128;2022-12-29T04:00:49;9.60;99.90
12152;DHT22;6139;51.274;7.128;2022-12-29T04:01:52;9.60;99.90
12152;DHT22;6139;51.274;7.128;2022-12-29T04:02:53;9.60;99.90
12152;DHT22;6139;51.274;7.128;2022-12-29T04:03:58;9.60;99.90
12152;DHT22;6139;51.274;7.128;2022-12-29T04:05:00;9.60;99.90
12152;DHT22;6139;51.274;7.128;2022-12-29T04:06:02;9.60;99.90
12152;DHT22;6139;51.274;7.128;2022-12-29T04:07:09;9.60;99.90
12152;DHT22;6139;51.274;7.128;2022-12-29T04:08:11;9.60;99.90
12152;DHT22;6139;51.274;7.128;2022-12-29T04:09:13;9.60;99.90
12152;DHT22;6139;51.274;7.128;2022-12-29T04:10:19;9.60;99.90
12152;DHT22;6139;51.274;7.128;2022-12-29T04:11:22;9.70;99.90
12152;DHT22;6139;51.274;7.128;2022-12-29T04:12:24;9.70;99.90
12152;DHT22;6139;51.274;7.128;2022-12-29T04:13:25;9.70;99.90
12152;DHT22;6139;51.274;7.128;2022-12-29T04:14:27;9.70;99.90
12152;DHT22;6139;51.274;7.128;2022-12-29T04:15:29;9.70;99.90
12152;DHT22;6139;51.274;7.128;2022-12-29T04:16:31;9.70;99.90
12152;DHT22;6139;51.274;7.128;2022-12-29T04:17:36;9.70;99.90
12152;DHT22;6139;51.274;7.128;2022-12-29T04:18:39;9.70;99.90
12152;DHT22;6139;51.274;7.128;2022-12-29T04:19:42;9.70;99.90
12152;DHT22;6139;51.274;7.128;2022-12-29T04:20:44;9.70;99.90
12152;DHT22;6139;51.274;7.128;2022-12-29T04:22:02;9.70;99.90
12152;DHT22;6139;51.274;7.128;2022-12-29T04:23:05;9.70;99.90
12152;DHT22;6139;51.274;7.128;2022-12-29T04:24:09;9.70;99.90
12152;DHT22;6139;51.274;7.128;2022-12-29T04:25:14;9.70;99.90
12152;DHT22;6139;51.274;7.128;2022-12-29T04:26:17;9.70;99.90
12152;DHT22;6139;51.274;7.128;2022-12-29T04:27:33;9.80;99.90
12152;DHT22;6139;51.274;7.128;2022-12-29T04:29:01;9.80;99.90
12152;DHT22;6139;51.274;7.128;2022-12-29T04:30:16;9.80;99.90
12152;DHT22;6139;51.274;7.128;2022-12-29T04:31:28;9.80;99.90
12152;DHT22;6139;51.274;7.128;2022-12-29T04:32:29;9.80;99.90
12152;DHT22;6139;51.274;7.128;2022-12-29T04:33:31;9.80;99.90
12152;DHT22;6139;51.274;7.128;2022-12-29T04:34:32;9.80;99.90
12152;DHT22;6139;51.274;7.128;2022-12-29T04:35:36;9.80;99.90
12152;DHT22;6139;51.274;7.128;2022-12-29T04:36:37;9.80;99.90
12152;DHT22;6139;51.274;7.128;2022-12-29T04:37:40;9.90;99.90
12152;DHT22;6139;51.274;7.128;2022-12-29T04:38:42;9.90;99.90
12152;DHT22;6139;51.274;7.128;2022-12-29T04:39:44;9.90;99.90
12152;DHT22;6139;51.274;7.128;2022-12-29T04:40:46;9.90;99.90
12152;DHT22;6139;51.274;7.128;2022-12-29T04:41:49;9.90;99.90
12152;DHT22;6139;51.274;7.128;2022-12-29T04:42:54;10.00;99.90
12152;DHT22;6139;51.274;7.128;2022-12-29T04:43:56;9.90;99.90
12152;DHT22;6139;51.274;7.128;2022-12-29T04:45:21;9.90;99.90
12152;DHT22;6139;51.274;7.128;2022-12-29T04:46:32;9.90;99.90
12152;DHT22;6139;51.274;7.128;2022-12-29T04:47:38;9.90;99.90
12152;DHT22;6139;51.274;7.128;2022-12-29T04:48:59;9.90;99.90
12152;DHT22;6139;51.274;7.128;2022-12-29T04:50:14;9.90;99.90
12152;DHT22;6139;51.274;7.128;2022-12-29T04:51:27;9.90;99.90
12152;DHT22;6139;51.274;7.128;2022-12-29T04:52:29;9.90;99.90
12152;DHT22;6139;51.274;7.128;2022-12-29T04:53:30;9.90;99.90
12152;DHT22;6139;51.274;7.128;2022-12-29T04:54:33;9.90;99.90
12152;DHT22;6139;51.274;7.128;2022-12-29T04:55:49;9.90;99.90
12152;DHT22;6139;51.274;7.128;2022-12-29T04:56:51;9.90;99.90
12152;DHT22;6139;51.274;7.128;2022-12-29T04:57:53;9.90;99.90
12152;DHT22;6139;51.274;7.128;2022-12-29T04:58:55;9.90;99.90
12152;DHT22;6139;51.274;7.128;2022-12-29T04:59:56;9.90;99.90
12152;DHT22;6139;51.274;7.128;2022-12-29T05:00:59;9.90;99.90
12152;DHT22;6139;51.274;7.128;2022-12-29T05:02:03;9.90;99.90
12152;DHT22;6139;51.274;7.128;2022-12-29T05:03:07;9.90;99.90
12152;DHT22;6139;51.274;7.128;2022-12-29T05:04:09;10.00;99.90
12152;DHT22;6139;51.274;7.128;2022-12-29T05:05:12;10.00;99.90
12152;DHT22;6139;51.274;7.128;2022-12-29T05:06:16;10.00;99.90
12152;DHT22;6139;51.274;7.128;2022-12-29T05:07:20;10.00;99.90
12152;DHT22;6139;51.274;7.128;2022-12-29T05:08:23;10.00;99.90
12152;DHT22;6139;51.274;7.128;2022-12-29T05:09:26;10.00;99.90
12152;DHT22;6139;51.274;7.128;2022-12-29T05:10:27;10.00;99.90
12152;DHT22;6139;51.274;7.128;2022-12-29T05:11:33;10.00;99.90
12152;DHT22;6139;51.274;7.128;2022-12-29T05:12:37;10.10;99.90
12152;DHT22;6139;51.274;7.128;2022-12-29T05:13:38;10.10;99.90
12152;DHT22;6139;51.274;7.128;2022-12-29T05:14:40;10.10;99.90
12152;DHT22;6139;51.274;7.128;2022-12-29T05:15:47;10.10;99.90
12152;DHT22;6139;51.274;7.128;2022-12-29T05:16:49;10.10;99.90
12152;DHT22;6139;51.274;7.128;2022-12-29T05:17:51;10.10;99.90
12152;DHT22;6139;51.274;7.128;2022-12-29T05:18:53;10.10;99.90
12152;DHT22;6139;51.274;7.128;2022-12-29T05:19:55;10.00;99.90
12152;DHT22;6139;51.274;7.128;2022-12-29T05:20:57;10.00;99.90
12152;DHT22;6139;51.274;7.128;2022-12-29T05:21:58;10.10;99.90
12152;DHT22;6139;51.274;7.128;2022-12-29T05:23:01;10.10;99.90
12152;DHT22;6139;51.274;7.128;2022-12-29T05:24:03;10.10;99.90
12152;DHT22;6139;51.274;7.128;2022-12-29T05:25:06;10.00;99.90
12152;DHT22;6139;51.274;7.128;2022-12-29T05:26:17;10.10;99.90
12152;DHT22;6139;51.274;7.128;2022-12-29T05:27:31;10.10;99.90
12152;DHT22;6139;51.274;7.128;2022-12-29T05:28:52;10.00;99.90
12152;DHT22;6139;51.274;7.128;2022-12-29T05:29:54;10.10;99.90
12152;DHT22;6139;51.274;7.128;2022-12-29T05:30:55;10.10;99.90
12152;DHT22;6139;51.274;7.128;2022-12-29T05:31:57;10.00;99.90
12152;DHT22;6139;51.274;7.128;2022-12-29T05:32:58;10.00;99.90
12152;DHT22;6139;51.274;7.128;2022-12-29T05:34:02;10.00;99.90
12152;DHT22;6139;51.274;7.128;2022-12-29T05:35:03;10.00;99.90
12152;DHT22;6139;51.274;7.128;2022-12-29T05:36:09;10.00;99.90
12152;DHT22;6139;51.274;7.128;2022-12-29T05:37:12;10.00;99.90
12152;DHT22;6139;51.274;7.128;2022-12-29T05:38:17;10.00;99.90
12152;DHT22;6139;51.274;7.128;2022-12-29T05:39:18;10.00;99.90
12152;DHT22;6139;51.274;7.128;2022-12-29T05:40:25;10.00;99.90
12152;DHT22;6139;51.274;7.128;2022-12-29T05:41:29;10.10;99.90
12152;DHT22;6139;51.274;7.128;2022-12-29T05:42:33;10.10;99.90
12152;DHT22;6139;51.274;7.128;2022-12-29T05:44:04;10.10;99.90
12152;DHT22;6139;51.274;7.128;2022-12-29T05:45:15;10.10;99.90
12152;DHT22;6139;51.274;7.128;2022-12-29T05:46:30;10.10;99.90
12152;DHT22;6139;51.274;7.128;2022-12-29T05:47:40;10.20;99.90
12152;DHT22;6139;51.274;7.128;2022-12-29T05:48:58;10.20;99.90
12152;DHT22;6139;51.274;7.128;2022-12-29T05:50:09;10.20;99.90
12152;DHT22;6139;51.274;7.128;2022-12-29T05:51:28;10.20;99.90
12152;DHT22;6139;51.274;7.128;2022-12-29T05:52:32;10.20;99.90
12152;DHT22;6139;51.274;7.128;2022-12-29T05:53:34;10.20;99.90
12152;DHT22;6139;51.274;7.128;2022-12-29T05:54:36;10.20;99.90
12152;DHT22;6139;51.274;7.128;2022-12-29T05:55:42;10.20;99.90
12152;DHT22;6139;51.274;7.128;2022-12-29T05:56:45;10.20;99.90
12152;DHT22;6139;51.274;7.128;2022-12-29T05:57:46;10.20;99.90
12152;DHT22;6139;51.274;7.128;2022-12-29T05:58:50;10.20;99.90
12152;DHT22;6139;51.274;7.128;2022-12-29T05:59:51;10.20;99.90
12152;DHT22;6139;51.274;7.128;2022-12-29T06:00:52;10.20;99.90
12152;DHT22;6139;51.274;7.128;2022-12-29T06:01:53;10.20;99.90
12152;DHT22;6139;51.274;7.128;2022-12-29T06:02:55;10.20;99.90
12152;DHT22;6139;51.274;7.128;2022-12-29T06:03:56;10.20;99.90
12152;DHT22;6139;51.274;7.128;2022-12-29T06:04:58;10.20;99.90
12152;DHT22;6139;51.274;7.128;2022-12-29T06:05:59;10.20;99.90
12152;DHT22;6139;51.274;7.128;2022-12-29T06:07:02;10.20;99.90
12152;DHT22;6139;51.274;7.128;2022-12-29T06:08:13;10.20;99.90
12152;DHT22;6139;51.274;7.128;2022-12-29T06:09:17;10.20;99.90
12152;DHT22;6139;51.274;7.128;2022-12-29T06:10:18;10.20;99.90
12152;DHT22;6139;51.274;7.128;2022-12-29T06:11:34;10.20;99.90
12152;DHT22;6139;51.274;7.128;2022-12-29T06:12:35;10.20;99.90
12152;DHT22;6139;51.274;7.128;2022-12-29T06:13:37;10.20;99.90
12152;DHT22;6139;51.274;7.128;2022-12-29T06:14:38;10.20;99.90
12152;DHT22;6139;51.274;7.128;2022-12-29T06:15:40;10.20;99.90
12152;DHT22;6139;51.274;7.128;2022-12-29T06:16:42;10.20;99.90
12152;DHT22;6139;51.274;7.128;2022-12-29T06:17:46;10.20;99.90
12152;DHT22;6139;51.274;7.128;2022-12-29T06:18:48;10.20;99.90
12152;DHT22;6139;51.274;7.128;2022-12-29T06:19:50;10.20;99.90
12152;DHT22;6139;51.274;7.128;2022-12-29T06:20:54;10.20;99.90
12152;DHT22;6139;51.274;7.128;2022-12-29T06:21:55;10.20;99.90
12152;DHT22;6139;51.274;7.128;2022-12-29T06:22:57;10.20;99.90
12152;DHT22;6139;51.274;7.128;2022-12-29T06:23:58;10.20;99.90
12152;DHT22;6139;51.274;7.128;2022-12-29T06:25:01;10.20;99.90
12152;DHT22;6139;51.274;7.128;2022-12-29T06:26:03;10.20;99.90
12152;DHT22;6139;51.274;7.128;2022-12-29T06:27:05;10.20;99.90
12152;DHT22;6139;51.274;7.128;2022-12-29T06:28:06;10.20;99.90
12152;DHT22;6139;51.274;7.128;2022-12-29T06:29:08;10.20;99.90
12152;DHT22;6139;51.274;7.128;2022-12-29T06:30:10;10.20;99.90
12152;DHT22;6139;51.274;7.128;2022-12-29T06:31:13;10.20;99.90
12152;DHT22;6139;51.274;7.128;2022-12-29T06:32:15;10.20;99.90
12152;DHT22;6139;51.274;7.128;2022-12-29T06:33:22;10.20;99.90
12152;DHT22;6139;51.274;7.128;2022-12-29T06:34:23;10.20;99.90
12152;DHT22;6139;51.274;7.128;2022-12-29T06:35:25;10.20;99.90
12152;DHT22;6139;51.274;7.128;2022-12-29T06:36:26;10.20;99.90
12152;DHT22;6139;51.274;7.128;2022-12-29T06:37:28;10.20;99.90
12152;DHT22;6139;51.274;7.128;2022-12-29T06:38:29;10.20;99.90
12152;DHT22;6139;51.274;7.128;2022-12-29T06:39:33;10.20;99.90
12152;DHT22;6139;51.274;7.128;2022-12-29T06:40:41;10.20;99.90
12152;DHT22;6139;51.274;7.128;2022-12-29T06:42:04;10.20;99.90
12152;DHT22;6139;51.274;7.128;2022-12-29T06:43:20;10.20;99.90
12152;DHT22;6139;51.274;7.128;2022-12-29T06:44:33;10.20;99.90
12152;DHT22;6139;51.274;7.128;2022-12-29T06:45:38;10.20;99.90
12152;DHT22;6139;51.274;7.128;2022-12-29T06:46:39;10.20;99.90
12152;DHT22;6139;51.274;7.128;2022-12-29T06:47:41;10.20;99.90
12152;DHT22;6139;51.274;7.128;2022-12-29T06:48:42;10.20;99.90
12152;DHT22;6139;51.274;7.128;2022-12-29T06:49:44;10.20;99.90
12152;DHT22;6139;51.274;7.128;2022-12-29T06:50:45;10.20;99.90
12152;DHT22;6139;51.274;7.128;2022-12-29T06:51:47;10.20;99.90
12152;DHT22;6139;51.274;7.128;2022-12-29T06:52:48;10.20;99.90
12152;DHT22;6139;51.274;7.128;2022-12-29T06:53:50;10.20;99.90
12152;DHT22;6139;51.274;7.128;2022-12-29T06:54:51;10.20;99.90
12152;DHT22;6139;51.274;7.128;2022-12-29T06:55:54;10.20;99.90
12152;DHT22;6139;51.274;7.128;2022-12-29T06:56:57;10.20;99.90
12152;DHT22;6139;51.274;7.128;2022-12-29T06:57:59;10.20;99.90
12152;DHT22;6139;51.274;7.128;2022-12-29T06:59:01;10.20;99.90
12152;DHT22;6139;51.274;7.128;2022-12-29T07:00:04;10.20;99.90
12152;DHT22;6139;51.274;7.128;2022-12-29T07:01:05;10.20;99.90
12152;DHT22;6139;51.274;7.128;2022-12-29T07:02:08;10.20;99.90
12152;DHT22;6139;51.274;7.128;2022-12-29T07:03:10;10.20;99.90
12152;DHT22;6139;51.274;7.128;2022-12-29T07:04:12;10.20;99.90
12152;DHT22;6139;51.274;7.128;2022-12-29T07:05:13;10.20;99.90
12152;DHT22;6139;51.274;7.128;2022-12-29T07:06:15;10.10;99.90
12152;DHT22;6139;51.274;7.128;2022-12-29T07:07:17;10.10;99.90
12152;DHT22;6139;51.274;7.128;2022-12-29T07:08:18;10.10;99.90
12152;DHT22;6139;51.274;7.128;2022-12-29T07:09:20;10.00;99.90
12152;DHT22;6139;51.274;7.128;2022-12-29T07:10:22;10.00;99.90
12152;DHT22;6139;51.274;7.128;2022-12-29T07:11:25;10.00;99.90
12152;DHT22;6139;51.274;7.128;2022-12-29T07:12:26;10.00;99.90